sensor_id;sensor_type;location;lat;lon;timestamp;P1;durP1;ratioP1;P2;durP2;ratioP2
70981;SDS011;58640;51.320;9.456;2022-12-18T00:00:30;30.17;;;13.17;;
70981;SDS011;58640;51.320;9.456;2022-12-18T00:02:55;34.10;;;14.03;;
70981;SDS011;58640;51.320;9.456;2022-12-18T00:05:21;31.70;;;15.13;;
70981;SDS011;58640;51.320;9.456;2022-12-18T00:07:46;35.67;;;14.70;;
70981;SDS011;58640;51.320;9.456;2022-12-18T00:10:11;33.17;;;15.43;;
70981;SDS011;58640;51.320;9.456;2022-12-18T00:12:36;36.60;;;13.73;;
70981;SDS011;58640;51.320;9.456;2022-12-18T00:15:02;35.63;;;14.33;;
70981;SDS011;58640;51.320;9.456;2022-12-18T00:17:28;34.73;;;15.70;;
70981;SDS011;58640;51.320;9.456;2022-12-18T00:19:53;32.87;;;13.77;;
70981;SDS011;58640;51.320;9.456;2022-12-18T00:22:18;34.13;;;13.67;;
70981;SDS011;58640;51.320;9.456;2022-12-18T00:24:43;30.07;;;14.33;;
70981;SDS011;58640;51.320;9.456;2022-12-18T00:27:09;28.27;;;13.30;;
70981;SDS011;58640;51.320;9.456;2022-12-18T00:29:34;32.53;;;13.87;;
70981;SDS011;58640;51.320;9.456;2022-12-18T00:31:59;31.53;;;13.90;;
70981;SDS011;58640;51.320;9.456;2022-12-18T00:34:25;28.23;;;14.07;;
70981;SDS011;58640;51.320;9.456;2022-12-18T00:36:50;31.40;;;13.20;;
70981;SDS011;58640;51.320;9.456;2022-12-18T00:39:15;30.47;;;12.73;;
70981;SDS011;58640;51.320;9.456;2022-12-18T00:41:41;27.13;;;12.23;;
70981;SDS011;58640;51.320;9.456;2022-12-18T00:44:24;32.53;;;14.40;;
70981;SDS011;58640;51.320;9.456;2022-12-18T00:46:49;29.23;;;13.60;;
70981;SDS011;58640;51.320;9.456;2022-12-18T00:49:16;26.43;;;12.63;;
70981;SDS011;58640;51.320;9.456;2022-12-18T00:51:43;28.73;;;11.93;;
70981;SDS011;58640;51.320;9.456;2022-12-18T00:54:09;27.70;;;12.03;;
70981;SDS011;58640;51.320;9.456;2022-12-18T00:56:36;24.23;;;12.73;;
70981;SDS011;58640;51.320;9.456;2022-12-18T00:59:02;26.73;;;11.93;;
70981;SDS011;58640;51.320;9.456;2022-12-18T01:01:27;30.57;;;13.30;;
70981;SDS011;58640;51.320;9.456;2022-12-18T01:03:53;22.57;;;10.63;;
70981;SDS011;58640;51.320;9.456;2022-12-18T01:06:18;22.87;;;11.23;;
70981;SDS011;58640;51.320;9.456;2022-12-18T01:08:44;28.43;;;12.27;;
70981;SDS011;58640;51.320;9.456;2022-12-18T01:11:10;22.97;;;11.93;;
70981;SDS011;58640;51.320;9.456;2022-12-18T01:13:37;23.33;;;11.43;;
70981;SDS011;58640;51.320;9.456;2022-12-18T01:16:03;30.53;;;11.57;;
70981;SDS011;58640;51.320;9.456;2022-12-18T01:18:29;25.53;;;11.37;;
70981;SDS011;58640;51.320;9.456;2022-12-18T01:20:54;26.50;;;12.67;;
70981;SDS011;58640;51.320;9.456;2022-12-18T01:23:20;38.13;;;14.03;;
70981;SDS011;58640;51.320;9.456;2022-12-18T01:25:45;29.10;;;12.33;;
70981;SDS011;58640;51.320;9.456;2022-12-18T01:28:10;27.00;;;12.63;;
70981;SDS011;58640;51.320;9.456;2022-12-18T01:30:36;31.13;;;13.33;;
70981;SDS011;58640;51.320;9.456;2022-12-18T01:33:01;29.07;;;12.53;;
70981;SDS011;58640;51.320;9.456;2022-12-18T01:35:29;29.33;;;12.67;;
70981;SDS011;58640;51.320;9.456;2022-12-18T01:37:55;32.33;;;13.47;;
70981;SDS011;58640;51.320;9.456;2022-12-18T01:40:20;31.33;;;14.10;;
70981;SDS011;58640;51.320;9.456;2022-12-18T01:42:49;27.17;;;12.97;;
70981;SDS011;58640;51.320;9.456;2022-12-18T01:47:47;30.97;;;12.60;;
70981;SDS011;58640;51.320;9.456;2022-12-18T01:50:28;30.53;;;12.87;;
70981;SDS011;58640;51.320;9.456;2022-12-18T01:55:46;30.00;;;13.17;;
70981;SDS011;58640;51.320;9.456;2022-12-18T01:58:18;34.50;;;13.23;;
70981;SDS011;58640;51.320;9.456;2022-12-18T02:00:45;31.13;;;13.30;;
70981;SDS011;58640;51.320;9.456;2022-12-18T02:03:10;32.10;;;13.63;;
70981;SDS011;58640;51.320;9.456;2022-12-18T02:05:57;30.03;;;13.03;;
70981;SDS011;58640;51.320;9.456;2022-12-18T02:08:26;32.57;;;14.30;;
70981;SDS011;58640;51.320;9.456;2022-12-18T02:19:53;39.80;;;13.73;;
70981;SDS011;58640;51.320;9.456;2022-12-18T02:22:20;29.80;;;12.70;;
70981;SDS011;58640;51.320;9.456;2022-12-18T02:25:05;28.17;;;12.60;;
70981;SDS011;58640;51.320;9.456;2022-12-18T02:27:37;32.13;;;13.10;;
70981;SDS011;58640;51.320;9.456;2022-12-18T02:30:06;31.27;;;13.17;;
70981;SDS011;58640;51.320;9.456;2022-12-18T02:32:37;32.17;;;13.67;;
70981;SDS011;58640;51.320;9.456;2022-12-18T02:35:06;28.57;;;12.83;;
70981;SDS011;58640;51.320;9.456;2022-12-18T02:37:35;29.63;;;13.53;;
70981;SDS011;58640;51.320;9.456;2022-12-18T02:40:03;29.60;;;14.00;;
70981;SDS011;58640;51.320;9.456;2022-12-18T02:42:30;30.17;;;13.80;;
70981;SDS011;58640;51.320;9.456;2022-12-18T02:44:55;33.10;;;14.67;;
70981;SDS011;58640;51.320;9.456;2022-12-18T02:47:22;33.40;;;14.07;;
70981;SDS011;58640;51.320;9.456;2022-12-18T02:55:42;29.10;;;12.77;;
70981;SDS011;58640;51.320;9.456;2022-12-18T02:58:17;30.83;;;13.67;;
70981;SDS011;58640;51.320;9.456;2022-12-18T03:03:22;29.37;;;13.93;;
70981;SDS011;58640;51.320;9.456;2022-12-18T03:06:14;37.20;;;15.30;;
70981;SDS011;58640;51.320;9.456;2022-12-18T03:08:43;24.73;;;11.60;;
70981;SDS011;58640;51.320;9.456;2022-12-18T03:11:13;28.30;;;12.37;;
70981;SDS011;58640;51.320;9.456;2022-12-18T03:13:46;29.47;;;13.07;;
70981;SDS011;58640;51.320;9.456;2022-12-18T03:16:22;27.47;;;12.53;;
70981;SDS011;58640;51.320;9.456;2022-12-18T03:18:54;26.10;;;13.07;;
70981;SDS011;58640;51.320;9.456;2022-12-18T03:21:26;27.33;;;12.67;;
70981;SDS011;58640;51.320;9.456;2022-12-18T03:23:57;29.10;;;12.90;;
70981;SDS011;58640;51.320;9.456;2022-12-18T03:26:24;27.67;;;11.93;;
70981;SDS011;58640;51.320;9.456;2022-12-18T03:28:53;31.23;;;13.23;;
70981;SDS011;58640;51.320;9.456;2022-12-18T03:31:24;26.97;;;13.03;;
70981;SDS011;58640;51.320;9.456;2022-12-18T03:33:54;26.20;;;12.03;;
70981;SDS011;58640;51.320;9.456;2022-12-18T03:36:20;26.07;;;11.70;;
70981;SDS011;58640;51.320;9.456;2022-12-18T03:38:46;28.30;;;12.07;;
70981;SDS011;58640;51.320;9.456;2022-12-18T03:44:23;24.93;;;12.63;;
70981;SDS011;58640;51.320;9.456;2022-12-18T03:47:01;25.20;;;11.73;;
70981;SDS011;58640;51.320;9.456;2022-12-18T03:49:56;29.67;;;12.13;;
70981;SDS011;58640;51.320;9.456;2022-12-18T03:52:20;25.87;;;11.67;;
70981;SDS011;58640;51.320;9.456;2022-12-18T03:54:55;27.00;;;12.23;;
70981;SDS011;58640;51.320;9.456;2022-12-18T03:57:24;32.57;;;11.93;;
70981;SDS011;58640;51.320;9.456;2022-12-18T04:00:01;25.93;;;11.00;;
70981;SDS011;58640;51.320;9.456;2022-12-18T04:02:54;31.80;;;12.93;;
70981;SDS011;58640;51.320;9.456;2022-12-18T04:05:21;24.27;;;12.13;;
70981;SDS011;58640;51.320;9.456;2022-12-18T04:07:50;24.53;;;11.23;;
70981;SDS011;58640;51.320;9.456;2022-12-18T04:10:17;30.30;;;13.27;;
70981;SDS011;58640;51.320;9.456;2022-12-18T04:12:43;25.90;;;12.50;;
70981;SDS011;58640;51.320;9.456;2022-12-18T04:15:09;27.23;;;12.57;;
70981;SDS011;58640;51.320;9.456;2022-12-18T04:17:35;25.67;;;13.57;;
70981;SDS011;58640;51.320;9.456;2022-12-18T04:20:01;26.47;;;11.77;;
70981;SDS011;58640;51.320;9.456;2022-12-18T04:22:27;27.03;;;12.93;;
70981;SDS011;58640;51.320;9.456;2022-12-18T04:24:52;28.37;;;11.90;;
70981;SDS011;58640;51.320;9.456;2022-12-18T04:27:17;30.43;;;12.73;;
70981;SDS011;58640;51.320;9.456;2022-12-18T04:29:43;26.23;;;12.53;;
70981;SDS011;58640;51.320;9.456;2022-12-18T04:32:08;28.53;;;11.97;;
70981;SDS011;58640;51.320;9.456;2022-12-18T04:34:34;25.23;;;12.07;;
70981;SDS011;58640;51.320;9.456;2022-12-18T04:36:59;24.70;;;12.23;;
70981;SDS011;58640;51.320;9.456;2022-12-18T04:39:24;30.37;;;13.57;;
70981;SDS011;58640;51.320;9.456;2022-12-18T04:41:50;29.10;;;13.17;;
70981;SDS011;58640;51.320;9.456;2022-12-18T04:44:15;32.43;;;13.27;;
70981;SDS011;58640;51.320;9.456;2022-12-18T04:46:40;27.00;;;12.47;;
70981;SDS011;58640;51.320;9.456;2022-12-18T04:49:06;31.27;;;13.60;;
70981;SDS011;58640;51.320;9.456;2022-12-18T04:51:31;32.30;;;13.77;;
70981;SDS011;58640;51.320;9.456;2022-12-18T04:53:57;25.50;;;12.40;;
70981;SDS011;58640;51.320;9.456;2022-12-18T04:56:22;30.17;;;12.93;;
70981;SDS011;58640;51.320;9.456;2022-12-18T04:58:48;31.47;;;13.43;;
70981;SDS011;58640;51.320;9.456;2022-12-18T05:01:14;27.70;;;13.63;;
70981;SDS011;58640;51.320;9.456;2022-12-18T05:03:41;33.03;;;13.03;;
70981;SDS011;58640;51.320;9.456;2022-12-18T05:06:07;26.93;;;12.17;;
70981;SDS011;58640;51.320;9.456;2022-12-18T05:08:33;28.40;;;13.03;;
70981;SDS011;58640;51.320;9.456;2022-12-18T05:10:59;29.13;;;12.03;;
70981;SDS011;58640;51.320;9.456;2022-12-18T05:13:26;29.07;;;12.80;;
70981;SDS011;58640;51.320;9.456;2022-12-18T05:15:52;32.17;;;12.13;;
70981;SDS011;58640;51.320;9.456;2022-12-18T05:18:18;28.40;;;12.43;;
70981;SDS011;58640;51.320;9.456;2022-12-18T05:20:43;25.63;;;11.63;;
70981;SDS011;58640;51.320;9.456;2022-12-18T05:23:09;34.70;;;13.00;;
70981;SDS011;58640;51.320;9.456;2022-12-18T05:25:34;27.67;;;12.00;;
70981;SDS011;58640;51.320;9.456;2022-12-18T05:27:59;23.67;;;11.83;;
70981;SDS011;58640;51.320;9.456;2022-12-18T05:30:25;28.07;;;12.90;;
70981;SDS011;58640;51.320;9.456;2022-12-18T05:32:50;30.87;;;12.63;;
70981;SDS011;58640;51.320;9.456;2022-12-18T05:35:16;33.57;;;12.83;;
70981;SDS011;58640;51.320;9.456;2022-12-18T05:37:41;25.10;;;12.23;;
70981;SDS011;58640;51.320;9.456;2022-12-18T05:40:06;21.60;;;11.10;;
70981;SDS011;58640;51.320;9.456;2022-12-18T05:42:32;27.00;;;11.77;;
70981;SDS011;58640;51.320;9.456;2022-12-18T05:44:57;26.97;;;11.67;;
70981;SDS011;58640;51.320;9.456;2022-12-18T05:47:23;31.00;;;12.80;;
70981;SDS011;58640;51.320;9.456;2022-12-18T05:49:48;25.53;;;10.63;;
70981;SDS011;58640;51.320;9.456;2022-12-18T05:52:14;30.60;;;12.90;;
70981;SDS011;58640;51.320;9.456;2022-12-18T05:54:39;22.87;;;11.07;;
70981;SDS011;58640;51.320;9.456;2022-12-18T05:57:05;26.77;;;12.77;;
70981;SDS011;58640;51.320;9.456;2022-12-18T05:59:30;28.03;;;12.33;;
70981;SDS011;58640;51.320;9.456;2022-12-18T06:01:55;25.03;;;13.13;;
70981;SDS011;58640;51.320;9.456;2022-12-18T06:04:21;26.93;;;11.97;;
70981;SDS011;58640;51.320;9.456;2022-12-18T06:06:46;25.33;;;11.77;;
70981;SDS011;58640;51.320;9.456;2022-12-18T06:09:11;33.67;;;12.93;;
70981;SDS011;58640;51.320;9.456;2022-12-18T06:11:37;30.33;;;13.20;;
70981;SDS011;58640;51.320;9.456;2022-12-18T06:14:03;26.40;;;12.60;;
70981;SDS011;58640;51.320;9.456;2022-12-18T06:16:30;25.10;;;12.07;;
70981;SDS011;58640;51.320;9.456;2022-12-18T06:18:57;23.47;;;11.70;;
70981;SDS011;58640;51.320;9.456;2022-12-18T06:21:23;27.07;;;12.07;;
70981;SDS011;58640;51.320;9.456;2022-12-18T06:23:48;26.77;;;12.33;;
70981;SDS011;58640;51.320;9.456;2022-12-18T06:26:14;24.93;;;12.50;;
70981;SDS011;58640;51.320;9.456;2022-12-18T06:28:39;26.77;;;12.43;;
70981;SDS011;58640;51.320;9.456;2022-12-18T06:31:05;23.00;;;10.70;;
70981;SDS011;58640;51.320;9.456;2022-12-18T06:33:31;27.90;;;11.43;;
70981;SDS011;58640;51.320;9.456;2022-12-18T06:36:01;28.37;;;12.13;;
70981;SDS011;58640;51.320;9.456;2022-12-18T06:38:28;25.20;;;12.10;;
70981;SDS011;58640;51.320;9.456;2022-12-18T06:40:53;26.30;;;11.93;;
70981;SDS011;58640;51.320;9.456;2022-12-18T06:43:19;21.80;;;10.60;;
70981;SDS011;58640;51.320;9.456;2022-12-18T06:45:44;25.67;;;11.43;;
70981;SDS011;58640;51.320;9.456;2022-12-18T06:48:09;23.17;;;11.33;;
70981;SDS011;58640;51.320;9.456;2022-12-18T06:50:35;27.83;;;12.33;;
70981;SDS011;58640;51.320;9.456;2022-12-18T06:53:00;28.53;;;11.63;;
70981;SDS011;58640;51.320;9.456;2022-12-18T06:55:25;25.27;;;11.47;;
70981;SDS011;58640;51.320;9.456;2022-12-18T06:57:50;23.67;;;10.47;;
70981;SDS011;58640;51.320;9.456;2022-12-18T07:00:16;22.60;;;11.20;;
70981;SDS011;58640;51.320;9.456;2022-12-18T07:02:41;32.40;;;11.60;;
70981;SDS011;58640;51.320;9.456;2022-12-18T07:05:07;24.00;;;10.63;;
70981;SDS011;58640;51.320;9.456;2022-12-18T07:07:35;25.70;;;11.23;;
70981;SDS011;58640;51.320;9.456;2022-12-18T07:10:00;23.17;;;11.00;;
70981;SDS011;58640;51.320;9.456;2022-12-18T07:12:26;23.47;;;10.80;;
70981;SDS011;58640;51.320;9.456;2022-12-18T07:14:52;21.20;;;10.90;;
70981;SDS011;58640;51.320;9.456;2022-12-18T07:17:17;24.77;;;12.73;;
70981;SDS011;58640;51.320;9.456;2022-12-18T07:19:42;29.10;;;12.17;;
70981;SDS011;58640;51.320;9.456;2022-12-18T07:22:08;22.13;;;10.20;;
70981;SDS011;58640;51.320;9.456;2022-12-18T07:24:33;25.93;;;12.17;;
70981;SDS011;58640;51.320;9.456;2022-12-18T07:26:59;23.17;;;10.77;;
70981;SDS011;58640;51.320;9.456;2022-12-18T07:29:24;27.27;;;11.57;;
70981;SDS011;58640;51.320;9.456;2022-12-18T07:31:50;25.03;;;11.77;;
70981;SDS011;58640;51.320;9.456;2022-12-18T07:34:16;26.67;;;12.13;;
70981;SDS011;58640;51.320;9.456;2022-12-18T07:36:41;29.80;;;12.33;;
70981;SDS011;58640;51.320;9.456;2022-12-18T07:39:07;22.10;;;12.17;;
70981;SDS011;58640;51.320;9.456;2022-12-18T07:41:33;25.10;;;11.13;;
70981;SDS011;58640;51.320;9.456;2022-12-18T07:43:58;27.30;;;13.00;;
70981;SDS011;58640;51.320;9.456;2022-12-18T07:46:24;35.43;;;13.67;;
70981;SDS011;58640;51.320;9.456;2022-12-18T07:48:49;29.13;;;11.43;;
70981;SDS011;58640;51.320;9.456;2022-12-18T07:51:14;30.07;;;12.27;;
70981;SDS011;58640;51.320;9.456;2022-12-18T07:53:40;30.90;;;13.30;;
70981;SDS011;58640;51.320;9.456;2022-12-18T07:56:07;32.57;;;13.67;;
70981;SDS011;58640;51.320;9.456;2022-12-18T07:58:34;31.53;;;14.03;;
70981;SDS011;58640;51.320;9.456;2022-12-18T08:01:08;33.63;;;13.17;;
70981;SDS011;58640;51.320;9.456;2022-12-18T08:03:36;29.20;;;13.70;;
70981;SDS011;58640;51.320;9.456;2022-12-18T08:06:06;33.57;;;14.20;;
70981;SDS011;58640;51.320;9.456;2022-12-18T08:08:33;33.23;;;15.60;;
70981;SDS011;58640;51.320;9.456;2022-12-18T08:10:59;27.63;;;15.07;;
70981;SDS011;58640;51.320;9.456;2022-12-18T08:13:25;36.53;;;15.57;;
70981;SDS011;58640;51.320;9.456;2022-12-18T08:15:57;30.27;;;15.27;;
70981;SDS011;58640;51.320;9.456;2022-12-18T08:18:24;30.70;;;15.63;;
70981;SDS011;58640;51.320;9.456;2022-12-18T08:20:49;33.00;;;14.90;;
70981;SDS011;58640;51.320;9.456;2022-12-18T08:23:15;27.13;;;13.87;;
70981;SDS011;58640;51.320;9.456;2022-12-18T08:25:40;31.20;;;13.27;;
70981;SDS011;58640;51.320;9.456;2022-12-18T08:28:05;21.47;;;11.50;;
70981;SDS011;58640;51.320;9.456;2022-12-18T08:30:31;30.53;;;14.53;;
70981;SDS011;58640;51.320;9.456;2022-12-18T08:32:56;33.53;;;12.40;;
70981;SDS011;58640;51.320;9.456;2022-12-18T08:35:21;32.93;;;18.43;;
70981;SDS011;58640;51.320;9.456;2022-12-18T08:37:47;29.07;;;14.87;;
70981;SDS011;58640;51.320;9.456;2022-12-18T08:40:12;26.93;;;13.37;;
70981;SDS011;58640;51.320;9.456;2022-12-18T08:42:38;26.37;;;12.80;;
70981;SDS011;58640;51.320;9.456;2022-12-18T08:45:21;30.00;;;12.17;;
70981;SDS011;58640;51.320;9.456;2022-12-18T08:47:47;32.03;;;13.80;;
70981;SDS011;58640;51.320;9.456;2022-12-18T08:50:12;42.10;;;19.60;;
70981;SDS011;58640;51.320;9.456;2022-12-18T08:52:37;43.83;;;19.90;;
70981;SDS011;58640;51.320;9.456;2022-12-18T08:55:03;44.80;;;19.53;;
70981;SDS011;58640;51.320;9.456;2022-12-18T08:57:29;31.77;;;16.77;;
70981;SDS011;58640;51.320;9.456;2022-12-18T08:59:54;37.10;;;16.53;;
70981;SDS011;58640;51.320;9.456;2022-12-18T09:02:19;29.63;;;14.27;;
70981;SDS011;58640;51.320;9.456;2022-12-18T09:04:46;30.97;;;14.80;;
70981;SDS011;58640;51.320;9.456;2022-12-18T09:07:12;26.87;;;12.83;;
70981;SDS011;58640;51.320;9.456;2022-12-18T09:09:38;27.73;;;13.63;;
70981;SDS011;58640;51.320;9.456;2022-12-18T09:12:03;26.00;;;11.70;;
70981;SDS011;58640;51.320;9.456;2022-12-18T09:14:28;22.27;;;12.53;;
70981;SDS011;58640;51.320;9.456;2022-12-18T09:16:54;26.63;;;12.63;;
70981;SDS011;58640;51.320;9.456;2022-12-18T09:19:19;28.47;;;13.27;;
70981;SDS011;58640;51.320;9.456;2022-12-18T09:21:45;28.30;;;14.57;;
70981;SDS011;58640;51.320;9.456;2022-12-18T09:24:14;28.80;;;13.50;;
70981;SDS011;58640;51.320;9.456;2022-12-18T09:26:40;25.87;;;11.67;;
70981;SDS011;58640;51.320;9.456;2022-12-18T09:29:05;29.27;;;13.37;;
70981;SDS011;58640;51.320;9.456;2022-12-18T09:31:32;26.63;;;12.20;;
70981;SDS011;58640;51.320;9.456;2022-12-18T09:33:58;26.13;;;12.53;;
70981;SDS011;58640;51.320;9.456;2022-12-18T09:36:23;25.67;;;13.13;;
70981;SDS011;58640;51.320;9.456;2022-12-18T09:38:48;27.17;;;12.33;;
70981;SDS011;58640;51.320;9.456;2022-12-18T09:43:45;29.57;;;12.73;;
70981;SDS011;58640;51.320;9.456;2022-12-18T09:46:19;26.87;;;13.30;;
70981;SDS011;58640;51.320;9.456;2022-12-18T09:48:51;27.70;;;12.57;;
70981;SDS011;58640;51.320;9.456;2022-12-18T09:51:22;27.93;;;12.80;;
70981;SDS011;58640;51.320;9.456;2022-12-18T09:53:58;25.87;;;12.23;;
70981;SDS011;58640;51.320;9.456;2022-12-18T09:56:26;25.30;;;12.43;;
70981;SDS011;58640;51.320;9.456;2022-12-18T09:59:01;25.60;;;12.03;;
70981;SDS011;58640;51.320;9.456;2022-12-18T10:01:28;25.03;;;12.97;;
70981;SDS011;58640;51.320;9.456;2022-12-18T10:03:54;24.87;;;13.23;;
70981;SDS011;58640;51.320;9.456;2022-12-18T10:06:40;25.33;;;12.13;;
70981;SDS011;58640;51.320;9.456;2022-12-18T10:09:18;27.13;;;13.33;;
70981;SDS011;58640;51.320;9.456;2022-12-18T10:17:20;28.37;;;12.83;;
70981;SDS011;58640;51.320;9.456;2022-12-18T10:20:29;27.10;;;13.40;;
70981;SDS011;58640;51.320;9.456;2022-12-18T10:28:51;26.47;;;12.77;;
70981;SDS011;58640;51.320;9.456;2022-12-18T10:31:27;30.43;;;14.30;;
70981;SDS011;58640;51.320;9.456;2022-12-18T10:33:55;26.20;;;13.37;;
70981;SDS011;58640;51.320;9.456;2022-12-18T10:36:22;23.93;;;12.93;;
70981;SDS011;58640;51.320;9.456;2022-12-18T10:38:48;21.90;;;11.83;;
70981;SDS011;58640;51.320;9.456;2022-12-18T10:43:48;31.93;;;15.70;;
70981;SDS011;58640;51.320;9.456;2022-12-18T10:46:17;30.93;;;13.87;;
70981;SDS011;58640;51.320;9.456;2022-12-18T10:58:21;24.43;;;13.27;;
70981;SDS011;58640;51.320;9.456;2022-12-18T11:04:51;27.90;;;13.73;;
70981;SDS011;58640;51.320;9.456;2022-12-18T11:07:17;29.47;;;14.90;;
70981;SDS011;58640;51.320;9.456;2022-12-18T11:09:42;32.67;;;15.13;;
70981;SDS011;58640;51.320;9.456;2022-12-18T11:14:46;34.03;;;17.67;;
70981;SDS011;58640;51.320;9.456;2022-12-18T11:17:20;31.77;;;15.27;;
70981;SDS011;58640;51.320;9.456;2022-12-18T11:19:52;31.57;;;16.10;;
70981;SDS011;58640;51.320;9.456;2022-12-18T11:24:54;27.00;;;13.43;;
70981;SDS011;58640;51.320;9.456;2022-12-18T11:27:22;31.93;;;15.53;;
70981;SDS011;58640;51.320;9.456;2022-12-18T11:29:48;34.10;;;14.73;;
70981;SDS011;58640;51.320;9.456;2022-12-18T11:35:07;31.03;;;15.47;;
70981;SDS011;58640;51.320;9.456;2022-12-18T11:40:37;29.50;;;14.50;;
70981;SDS011;58640;51.320;9.456;2022-12-18T11:50:20;37.30;;;15.60;;
70981;SDS011;58640;51.320;9.456;2022-12-18T11:52:50;34.47;;;15.73;;
70981;SDS011;58640;51.320;9.456;2022-12-18T11:55:19;32.00;;;16.27;;
70981;SDS011;58640;51.320;9.456;2022-12-18T12:00:40;33.90;;;15.83;;
70981;SDS011;58640;51.320;9.456;2022-12-18T12:03:38;28.67;;;15.03;;
70981;SDS011;58640;51.320;9.456;2022-12-18T12:06:15;34.57;;;14.17;;
70981;SDS011;58640;51.320;9.456;2022-12-18T12:11:56;29.07;;;13.97;;
70981;SDS011;58640;51.320;9.456;2022-12-18T12:14:30;31.87;;;15.10;;
70981;SDS011;58640;51.320;9.456;2022-12-18T12:17:18;33.53;;;15.43;;
70981;SDS011;58640;51.320;9.456;2022-12-18T12:20:26;33.63;;;15.10;;
70981;SDS011;58640;51.320;9.456;2022-12-18T12:25:52;34.23;;;14.57;;
70981;SDS011;58640;51.320;9.456;2022-12-18T12:36:49;35.35;;;16.40;;
70981;SDS011;58640;51.320;9.456;2022-12-18T12:39:21;30.83;;;15.50;;
70981;SDS011;58640;51.320;9.456;2022-12-18T12:41:51;32.27;;;15.37;;
70981;SDS011;58640;51.320;9.456;2022-12-18T12:44:39;33.10;;;16.17;;
70981;SDS011;58640;51.320;9.456;2022-12-18T12:47:16;33.03;;;16.30;;
70981;SDS011;58640;51.320;9.456;2022-12-18T12:49:46;31.10;;;15.00;;
70981;SDS011;58640;51.320;9.456;2022-12-18T12:55:04;35.97;;;14.93;;
70981;SDS011;58640;51.320;9.456;2022-12-18T12:57:35;30.73;;;15.40;;
70981;SDS011;58640;51.320;9.456;2022-12-18T13:00:09;27.80;;;14.77;;
70981;SDS011;58640;51.320;9.456;2022-12-18T13:08:05;32.53;;;15.83;;
70981;SDS011;58640;51.320;9.456;2022-12-18T13:10:39;32.87;;;15.07;;
70981;SDS011;58640;51.320;9.456;2022-12-18T13:13:09;29.80;;;14.67;;
70981;SDS011;58640;51.320;9.456;2022-12-18T13:15:41;31.77;;;14.23;;
70981;SDS011;58640;51.320;9.456;2022-12-18T13:20:35;27.87;;;14.13;;
70981;SDS011;58640;51.320;9.456;2022-12-18T13:31:05;32.57;;;16.73;;
70981;SDS011;58640;51.320;9.456;2022-12-18T13:33:37;30.27;;;16.33;;
70981;SDS011;58640;51.320;9.456;2022-12-18T13:39:08;34.63;;;17.10;;
70981;SDS011;58640;51.320;9.456;2022-12-18T13:41:39;34.50;;;18.17;;
70981;SDS011;58640;51.320;9.456;2022-12-18T13:44:22;34.57;;;18.13;;
70981;SDS011;58640;51.320;9.456;2022-12-18T13:46:59;34.17;;;16.60;;
70981;SDS011;58640;51.320;9.456;2022-12-18T13:49:40;30.93;;;14.37;;
70981;SDS011;58640;51.320;9.456;2022-12-18T13:52:15;26.10;;;14.27;;
70981;SDS011;58640;51.320;9.456;2022-12-18T13:54:45;27.70;;;14.43;;
70981;SDS011;58640;51.320;9.456;2022-12-18T13:57:29;25.80;;;14.50;;
70981;SDS011;58640;51.320;9.456;2022-12-18T13:59:57;27.57;;;13.30;;
70981;SDS011;58640;51.320;9.456;2022-12-18T14:02:24;33.17;;;15.43;;
70981;SDS011;58640;51.320;9.456;2022-12-18T14:04:52;31.57;;;15.30;;
70981;SDS011;58640;51.320;9.456;2022-12-18T14:07:20;29.97;;;15.03;;
70981;SDS011;58640;51.320;9.456;2022-12-18T14:09:57;30.53;;;14.93;;
70981;SDS011;58640;51.320;9.456;2022-12-18T14:12:26;28.33;;;14.87;;
70981;SDS011;58640;51.320;9.456;2022-12-18T14:20:22;30.93;;;16.27;;
70981;SDS011;58640;51.320;9.456;2022-12-18T14:22:49;30.43;;;16.20;;
70981;SDS011;58640;51.320;9.456;2022-12-18T14:27:50;29.10;;;14.63;;
70981;SDS011;58640;51.320;9.456;2022-12-18T14:30:32;32.80;;;16.63;;
70981;SDS011;58640;51.320;9.456;2022-12-18T14:33:08;27.97;;;13.60;;
70981;SDS011;58640;51.320;9.456;2022-12-18T14:35:40;28.43;;;13.83;;
70981;SDS011;58640;51.320;9.456;2022-12-18T14:38:16;26.00;;;14.23;;
70981;SDS011;58640;51.320;9.456;2022-12-18T14:40:47;23.13;;;13.20;;
70981;SDS011;58640;51.320;9.456;2022-12-18T14:43:16;23.57;;;11.90;;
70981;SDS011;58640;51.320;9.456;2022-12-18T14:45:45;22.60;;;11.43;;
70981;SDS011;58640;51.320;9.456;2022-12-18T14:50:36;19.80;;;10.17;;
70981;SDS011;58640;51.320;9.456;2022-12-18T14:53:02;21.50;;;10.17;;
70981;SDS011;58640;51.320;9.456;2022-12-18T14:55:28;20.87;;;10.03;;
70981;SDS011;58640;51.320;9.456;2022-12-18T14:57:53;17.83;;;10.13;;
70981;SDS011;58640;51.320;9.456;2022-12-18T15:00:21;21.67;;;10.13;;
70981;SDS011;58640;51.320;9.456;2022-12-18T15:02:50;18.93;;;10.27;;
70981;SDS011;58640;51.320;9.456;2022-12-18T15:05:20;20.07;;;10.70;;
70981;SDS011;58640;51.320;9.456;2022-12-18T15:07:51;23.67;;;10.97;;
70981;SDS011;58640;51.320;9.456;2022-12-18T15:10:24;23.53;;;11.07;;
70981;SDS011;58640;51.320;9.456;2022-12-18T15:18:01;18.33;;;9.93;;
70981;SDS011;58640;51.320;9.456;2022-12-18T15:20:57;21.40;;;10.17;;
70981;SDS011;58640;51.320;9.456;2022-12-18T15:25:56;20.97;;;9.93;;
70981;SDS011;58640;51.320;9.456;2022-12-18T15:28:43;24.93;;;11.60;;
70981;SDS011;58640;51.320;9.456;2022-12-18T15:33:37;25.13;;;11.10;;
70981;SDS011;58640;51.320;9.456;2022-12-18T15:36:24;23.93;;;11.10;;
70981;SDS011;58640;51.320;9.456;2022-12-18T15:38:50;18.87;;;10.57;;
70981;SDS011;58640;51.320;9.456;2022-12-18T15:41:19;18.63;;;10.50;;
70981;SDS011;58640;51.320;9.456;2022-12-18T15:43:46;19.23;;;11.17;;
70981;SDS011;58640;51.320;9.456;2022-12-18T15:46:14;23.83;;;11.67;;
70981;SDS011;58640;51.320;9.456;2022-12-18T15:48:48;25.03;;;12.53;;
70981;SDS011;58640;51.320;9.456;2022-12-18T15:51:16;23.13;;;11.73;;
70981;SDS011;58640;51.320;9.456;2022-12-18T15:53:43;21.67;;;10.03;;
70981;SDS011;58640;51.320;9.456;2022-12-18T15:56:10;25.23;;;12.40;;
70981;SDS011;58640;51.320;9.456;2022-12-18T15:58:55;25.63;;;12.50;;
70981;SDS011;58640;51.320;9.456;2022-12-18T16:01:20;25.73;;;13.20;;
70981;SDS011;58640;51.320;9.456;2022-12-18T16:03:51;23.63;;;12.27;;
70981;SDS011;58640;51.320;9.456;2022-12-18T16:06:16;20.60;;;11.43;;
70981;SDS011;58640;51.320;9.456;2022-12-18T16:08:41;30.43;;;12.93;;
70981;SDS011;58640;51.320;9.456;2022-12-18T16:11:16;30.67;;;13.50;;
70981;SDS011;58640;51.320;9.456;2022-12-18T16:14:02;23.73;;;13.03;;
70981;SDS011;58640;51.320;9.456;2022-12-18T16:19:01;23.47;;;13.40;;
70981;SDS011;58640;51.320;9.456;2022-12-18T16:21:26;28.90;;;14.00;;
70981;SDS011;58640;51.320;9.456;2022-12-18T16:23:51;29.23;;;13.13;;
70981;SDS011;58640;51.320;9.456;2022-12-18T16:26:17;28.97;;;13.73;;
70981;SDS011;58640;51.320;9.456;2022-12-18T16:28:42;22.60;;;12.67;;
70981;SDS011;58640;51.320;9.456;2022-12-18T16:31:07;27.33;;;13.33;;
70981;SDS011;58640;51.320;9.456;2022-12-18T16:33:33;27.03;;;14.20;;
70981;SDS011;58640;51.320;9.456;2022-12-18T16:35:58;28.30;;;13.13;;
70981;SDS011;58640;51.320;9.456;2022-12-18T16:38:23;28.50;;;13.63;;
70981;SDS011;58640;51.320;9.456;2022-12-18T16:40:49;30.23;;;13.77;;
70981;SDS011;58640;51.320;9.456;2022-12-18T16:43:33;25.23;;;12.80;;
70981;SDS011;58640;51.320;9.456;2022-12-18T16:45:58;26.57;;;13.80;;